sensor_id;sensor_type;location;lat;lon;timestamp;pressure;altitude;pressure_sealevel;temperature;humidity
29379;BME280;16362;47.202;15.258;2023-05-25T00:01:01;96413.94;;;13.07;100.00
29379;BME280;16362;47.202;15.258;2023-05-25T00:03:29;96407.13;;;13.04;100.00
29379;BME280;16362;47.202;15.258;2023-05-25T00:05:58;96412.47;;;13.04;100.00
29379;BME280;16362;47.202;15.258;2023-05-25T00:08:28;96408.97;;;13.04;100.00
29379;BME280;16362;47.202;15.258;2023-05-25T00:10:55;96407.97;;;13.05;100.00
29379;BME280;16362;47.202;15.258;2023-05-25T00:13:22;96409.78;;;13.04;100.00
29379;BME280;16362;47.202;15.258;2023-05-25T00:15:49;96410.66;;;13.05;100.00
29379;BME280;16362;47.202;15.258;2023-05-25T00:18:16;96409.63;;;13.06;100.00
29379;BME280;16362;47.202;15.258;2023-05-25T00:20:44;96410.84;;;13.03;100.00
29379;BME280;16362;47.202;15.258;2023-05-25T00:23:13;96411.19;;;13.00;100.00
29379;BME280;16362;47.202;15.258;2023-05-25T00:25:40;96423.75;;;13.00;100.00
29379;BME280;16362;47.202;15.258;2023-05-25T00:28:07;96417.78;;;12.97;100.00
29379;BME280;16362;47.202;15.258;2023-05-25T00:30:34;96430.69;;;12.94;100.00
29379;BME280;16362;47.202;15.258;2023-05-25T00:33:01;96429.03;;;12.93;100.00
29379;BME280;16362;47.202;15.258;2023-05-25T00:35:28;96436.25;;;12.92;100.00
29379;BME280;16362;47.202;15.258;2023-05-25T00:37:55;96439.28;;;12.89;100.00
29379;BME280;16362;47.202;15.258;2023-05-25T00:40:22;96446.69;;;12.87;100.00
29379;BME280;16362;47.202;15.258;2023-05-25T00:42:50;96443.72;;;12.82;100.00
29379;BME280;16362;47.202;15.258;2023-05-25T00:45:17;96439.38;;;12.81;100.00
29379;BME280;16362;47.202;15.258;2023-05-25T00:47:44;96440.41;;;12.80;100.00
29379;BME280;16362;47.202;15.258;2023-05-25T00:50:13;96442.59;;;12.76;100.00
29379;BME280;16362;47.202;15.258;2023-05-25T00:52:42;96440.13;;;12.75;100.00
29379;BME280;16362;47.202;15.258;2023-05-25T00:55:10;96445.81;;;12.72;100.00
29379;BME280;16362;47.202;15.258;2023-05-25T00:57:41;96442.13;;;12.73;100.00
29379;BME280;16362;47.202;15.258;2023-05-25T01:00:13;96447.31;;;12.74;100.00
29379;BME280;16362;47.202;15.258;2023-05-25T01:02:41;96447.50;;;12.73;100.00
29379;BME280;16362;47.202;15.258;2023-05-25T01:05:10;96444.81;;;12.73;100.00
29379;BME280;16362;47.202;15.258;2023-05-25T01:07:38;96441.94;;;12.74;100.00
29379;BME280;16362;47.202;15.258;2023-05-25T01:10:08;96437.78;;;12.72;100.00
29379;BME280;16362;47.202;15.258;2023-05-25T01:12:37;96437.78;;;12.72;100.00
29379;BME280;16362;47.202;15.258;2023-05-25T01:15:06;96438.25;;;12.75;100.00
29379;BME280;16362;47.202;15.258;2023-05-25T01:17:34;96434.56;;;12.76;100.00
29379;BME280;16362;47.202;15.258;2023-05-25T01:20:05;96439.75;;;12.78;100.00
29379;BME280;16362;47.202;15.258;2023-05-25T01:22:46;96435.88;;;12.80;100.00
29379;BME280;16362;47.202;15.258;2023-05-25T01:25:21;96445.09;;;12.78;100.00
29379;BME280;16362;47.202;15.258;2023-05-25T01:27:55;96437.06;;;12.78;100.00
29379;BME280;16362;47.202;15.258;2023-05-25T01:30:25;96444.91;;;12.79;100.00
29379;BME280;16362;47.202;15.258;2023-05-25T01:32:53;96445.75;;;12.80;100.00
29379;BME280;16362;47.202;15.258;2023-05-25T01:35:21;96447.41;;;12.81;100.00
29379;BME280;16362;47.202;15.258;2023-05-25T01:37:50;96444.91;;;12.79;100.00
29379;BME280;16362;47.202;15.258;2023-05-25T01:40:17;96440.41;;;12.80;100.00
29379;BME280;16362;47.202;15.258;2023-05-25T01:42:44;96444.91;;;12.79;100.00
29379;BME280;16362;47.202;15.258;2023-05-25T01:45:12;96445.75;;;12.80;100.00
29379;BME280;16362;47.202;15.258;2023-05-25T01:50:18;96440.41;;;12.80;100.00
29379;BME280;16362;47.202;15.258;2023-05-25T01:52:55;96438.72;;;12.79;100.00
29379;BME280;16362;47.202;15.258;2023-05-25T01:55:24;96430.50;;;12.80;100.00
29379;BME280;16362;47.202;15.258;2023-05-25T01:57:55;96437.88;;;12.78;100.00
29379;BME280;16362;47.202;15.258;2023-05-25T02:04:26;96441.94;;;12.74;100.00
29379;BME280;16362;47.202;15.258;2023-05-25T02:06:54;96440.75;;;12.77;100.00
29379;BME280;16362;47.202;15.258;2023-05-25T02:09:21;96436.25;;;12.77;100.00
29379;BME280;16362;47.202;15.258;2023-05-25T02:11:48;96433.75;;;12.76;100.00
29379;BME280;16362;47.202;15.258;2023-05-25T02:14:15;96433.09;;;12.74;100.00
29379;BME280;16362;47.202;15.258;2023-05-25T02:16:42;96430.59;;;12.72;100.00
29379;BME280;16362;47.202;15.258;2023-05-25T02:19:11;96431.13;;;12.68;100.00
29379;BME280;16362;47.202;15.258;2023-05-25T02:21:41;96429.50;;;12.67;100.00
29379;BME280;16362;47.202;15.258;2023-05-25T02:24:08;96437.25;;;12.61;100.00
29379;BME280;16362;47.202;15.258;2023-05-25T02:26:36;96433.91;;;12.59;100.00
29379;BME280;16362;47.202;15.258;2023-05-25T02:29:04;96436.97;;;12.56;100.00
29379;BME280;16362;47.202;15.258;2023-05-25T02:31:31;96432.97;;;12.52;100.00
29379;BME280;16362;47.202;15.258;2023-05-25T02:33:58;96431.69;;;12.48;100.00
29379;BME280;16362;47.202;15.258;2023-05-25T02:36:26;96432.06;;;12.45;100.00
29379;BME280;16362;47.202;15.258;2023-05-25T02:38:53;96437.75;;;12.42;100.00
29379;BME280;16362;47.202;15.258;2023-05-25T02:41:20;96434.63;;;12.38;100.00
29379;BME280;16362;47.202;15.258;2023-05-25T02:43:49;96438.69;;;12.34;100.00
29379;BME280;16362;47.202;15.258;2023-05-25T02:46:16;96437.38;;;12.30;100.00
29379;BME280;16362;47.202;15.258;2023-05-25T02:48:43;96445.94;;;12.25;100.00
29379;BME280;16362;47.202;15.258;2023-05-25T02:51:10;96444.81;;;12.20;100.00
29379;BME280;16362;47.202;15.258;2023-05-25T02:53:37;96447.38;;;12.13;100.00
29379;BME280;16362;47.202;15.258;2023-05-25T02:56:04;96447.06;;;12.08;100.00
29379;BME280;16362;47.202;15.258;2023-05-25T02:58:31;96459.63;;;12.07;100.00
29379;BME280;16362;47.202;15.258;2023-05-25T03:00:58;96459.50;;;12.01;100.00
29379;BME280;16362;47.202;15.258;2023-05-25T03:03:26;96462.56;;;11.98;100.00
29379;BME280;16362;47.202;15.258;2023-05-25T03:05:54;96463.22;;;11.91;100.00
29379;BME280;16362;47.202;15.258;2023-05-25T03:08:22;96461.09;;;11.87;100.00
29379;BME280;16362;47.202;15.258;2023-05-25T03:10:49;96472.97;;;11.84;100.00
29379;BME280;16362;47.202;15.258;2023-05-25T03:13:16;96479.97;;;11.85;100.00
29379;BME280;16362;47.202;15.258;2023-05-25T03:15:43;96477.00;;;11.80;100.00
29379;BME280;16362;47.202;15.258;2023-05-25T03:18:10;96480.38;;;11.74;100.00
29379;BME280;16362;47.202;15.258;2023-05-25T03:20:37;96479.63;;;11.65;100.00
29379;BME280;16362;47.202;15.258;2023-05-25T03:23:04;96486.97;;;11.63;100.00
29379;BME280;16362;47.202;15.258;2023-05-25T03:25:31;96480.44;;;11.66;100.00
29379;BME280;16362;47.202;15.258;2023-05-25T03:27:57;96479.13;;;11.61;100.00
29379;BME280;16362;47.202;15.258;2023-05-25T03:30:24;96487.81;;;11.55;100.00
29379;BME280;16362;47.202;15.258;2023-05-25T03:32:51;96474.19;;;11.50;100.00
29379;BME280;16362;47.202;15.258;2023-05-25T03:35:18;96485.69;;;11.51;100.00
29379;BME280;16362;47.202;15.258;2023-05-25T03:37:45;96481.16;;;11.51;100.00
29379;BME280;16362;47.202;15.258;2023-05-25T03:40:12;96484.03;;;11.50;100.00
29379;BME280;16362;47.202;15.258;2023-05-25T03:42:39;96488.19;;;11.52;100.00
29379;BME280;16362;47.202;15.258;2023-05-25T03:45:06;96485.88;;;11.49;100.00
29379;BME280;16362;47.202;15.258;2023-05-25T03:47:37;96494.88;;;11.48;100.00
29379;BME280;16362;47.202;15.258;2023-05-25T03:50:04;96492.88;;;11.50;100.00
29379;BME280;16362;47.202;15.258;2023-05-25T03:52:32;96500.25;;;11.48;100.00
29379;BME280;16362;47.202;15.258;2023-05-25T03:54:59;96504.09;;;11.45;100.00
29379;BME280;16362;47.202;15.258;2023-05-25T03:57:27;96498.91;;;11.44;100.00
29379;BME280;16362;47.202;15.258;2023-05-25T03:59:54;96507.75;;;11.44;100.00
29379;BME280;16362;47.202;15.258;2023-05-25T04:02:21;96511.47;;;11.43;100.00
29379;BME280;16362;47.202;15.258;2023-05-25T04:04:48;96510.78;;;11.41;100.00
29379;BME280;16362;47.202;15.258;2023-05-25T04:07:18;96506.13;;;11.43;100.00
29379;BME280;16362;47.202;15.258;2023-05-25T04:09:45;96509.44;;;11.45;100.00
29379;BME280;16362;47.202;15.258;2023-05-25T04:12:12;96513.78;;;11.46;100.00
29379;BME280;16362;47.202;15.258;2023-05-25T04:14:39;96508.06;;;11.50;100.00
29379;BME280;16362;47.202;15.258;2023-05-25T04:17:07;96516.28;;;11.48;100.00
29379;BME280;16362;47.202;15.258;2023-05-25T04:19:34;96515.91;;;11.51;100.00
29379;BME280;16362;47.202;15.258;2023-05-25T04:22:01;96518.09;;;11.56;100.00
29379;BME280;16362;47.202;15.258;2023-05-25T04:24:28;96515.06;;;11.59;100.00
29379;BME280;16362;47.202;15.258;2023-05-25T04:26:55;96520.22;;;11.60;100.00
29379;BME280;16362;47.202;15.258;2023-05-25T04:29:22;96521.22;;;11.59;100.00
29379;BME280;16362;47.202;15.258;2023-05-25T04:31:49;96520.22;;;11.60;100.00
29379;BME280;16362;47.202;15.258;2023-05-25T04:34:17;96524.56;;;11.61;100.00
29379;BME280;16362;47.202;15.258;2023-05-25T04:36:43;96519.53;;;11.67;100.00
29379;BME280;16362;47.202;15.258;2023-05-25T04:39:10;96523.88;;;11.68;100.00
29379;BME280;16362;47.202;15.258;2023-05-25T04:41:37;96526.38;;;11.69;100.00
29379;BME280;16362;47.202;15.258;2023-05-25T04:44:04;96526.06;;;11.64;100.00
29379;BME280;16362;47.202;15.258;2023-05-25T04:46:35;96526.56;;;11.59;100.00
29379;BME280;16362;47.202;15.258;2023-05-25T04:49:03;96521.94;;;11.53;100.00
29379;BME280;16362;47.202;15.258;2023-05-25T04:51:31;96528.63;;;11.49;100.00
29379;BME280;16362;47.202;15.258;2023-05-25T04:53:58;96520.44;;;11.51;100.00
29379;BME280;16362;47.202;15.258;2023-05-25T04:56:25;96518.75;;;11.50;100.00
29379;BME280;16362;47.202;15.258;2023-05-25T04:58:52;96532.81;;;11.52;100.00
29379;BME280;16362;47.202;15.258;2023-05-25T05:01:19;96530.41;;;11.65;100.00
29379;BME280;16362;47.202;15.258;2023-05-25T05:03:46;96529.69;;;12.03;100.00
29379;BME280;16362;47.202;15.258;2023-05-25T05:06:13;96533.28;;;12.41;100.00
29379;BME280;16362;47.202;15.258;2023-05-25T05:08:40;96526.16;;;12.72;100.00
29379;BME280;16362;47.202;15.258;2023-05-25T05:11:07;96532.22;;;13.04;100.00
29379;BME280;16362;47.202;15.258;2023-05-25T05:13:33;96540.75;;;13.37;100.00
29379;BME280;16362;47.202;15.258;2023-05-25T05:16:00;96529.00;;;13.68;100.00
29379;BME280;16362;47.202;15.258;2023-05-25T05:18:27;96528.78;;;13.85;100.00
29379;BME280;16362;47.202;15.258;2023-05-25T05:20:54;96521.38;;;14.08;100.00
29379;BME280;16362;47.202;15.258;2023-05-25T05:23:21;96529.84;;;14.27;100.00
29379;BME280;16362;47.202;15.258;2023-05-25T05:25:48;96531.66;;;14.63;100.00
29379;BME280;16362;47.202;15.258;2023-05-25T05:28:15;96537.56;;;14.80;100.00
29379;BME280;16362;47.202;15.258;2023-05-25T05:30:41;96539.34;;;14.94;100.00
29379;BME280;16362;47.202;15.258;2023-05-25T05:33:12;96537.72;;;15.00;100.00
29379;BME280;16362;47.202;15.258;2023-05-25T05:35:39;96538.94;;;14.97;100.00
29379;BME280;16362;47.202;15.258;2023-05-25T05:38:06;96531.94;;;15.03;100.00
29379;BME280;16362;47.202;15.258;2023-05-25T05:40:33;96530.25;;;14.95;100.00
29379;BME280;16362;47.202;15.258;2023-05-25T05:43:00;96526.63;;;15.10;100.00
29379;BME280;16362;47.202;15.258;2023-05-25T05:45:27;96529.44;;;15.30;100.00
29379;BME280;16362;47.202;15.258;2023-05-25T05:47:54;96533.06;;;15.44;100.00
29379;BME280;16362;47.202;15.258;2023-05-25T05:50:21;96538.13;;;15.67;100.00
29379;BME280;16362;47.202;15.258;2023-05-25T05:52:48;96537.66;;;15.98;100.00
29379;BME280;16362;47.202;15.258;2023-05-25T05:55:15;96538.94;;;16.16;100.00
29379;BME280;16362;47.202;15.258;2023-05-25T05:57:42;96543.75;;;16.34;100.00
29379;BME280;16362;47.202;15.258;2023-05-25T06:00:09;96534.66;;;16.48;100.00
29379;BME280;16362;47.202;15.258;2023-05-25T06:02:36;96536.50;;;16.35;100.00
29379;BME280;16362;47.202;15.258;2023-05-25T06:05:07;96537.97;;;16.30;100.00
29379;BME280;16362;47.202;15.258;2023-05-25T06:07:34;96536.66;;;16.06;100.00
29379;BME280;16362;47.202;15.258;2023-05-25T06:10:02;96534.63;;;16.28;100.00
29379;BME280;16362;47.202;15.258;2023-05-25T06:12:28;96533.41;;;16.44;100.00
29379;BME280;16362;47.202;15.258;2023-05-25T06:14:55;96539.00;;;16.70;100.00
29379;BME280;16362;47.202;15.258;2023-05-25T06:17:22;96532.59;;;16.84;100.00
29379;BME280;16362;47.202;15.258;2023-05-25T06:19:49;96539.91;;;17.04;100.00
29379;BME280;16362;47.202;15.258;2023-05-25T06:22:16;96538.81;;;17.11;100.00
29379;BME280;16362;47.202;15.258;2023-05-25T06:24:43;96533.59;;;17.37;100.00
29379;BME280;16362;47.202;15.258;2023-05-25T06:27:10;96536.88;;;17.52;100.00
29379;BME280;16362;47.202;15.258;2023-05-25T06:29:38;96535.25;;;17.51;100.00
29379;BME280;16362;47.202;15.258;2023-05-25T06:32:05;96539.19;;;17.48;100.00
29379;BME280;16362;47.202;15.258;2023-05-25T06:34:32;96537.50;;;17.54;100.00
29379;BME280;16362;47.202;15.258;2023-05-25T06:37:01;96542.81;;;17.81;100.00
29379;BME280;16362;47.202;15.258;2023-05-25T06:39:28;96532.56;;;18.03;100.00
29379;BME280;16362;47.202;15.258;2023-05-25T06:41:55;96533.28;;;18.24;100.00
29379;BME280;16362;47.202;15.258;2023-05-25T06:44:22;96529.44;;;18.06;100.00
29379;BME280;16362;47.202;15.258;2023-05-25T06:46:49;96528.66;;;17.99;100.00
29379;BME280;16362;47.202;15.258;2023-05-25T06:49:16;96523.91;;;17.94;100.00
29379;BME280;16362;47.202;15.258;2023-05-25T06:51:43;96540.34;;;17.79;100.00
29379;BME280;16362;47.202;15.258;2023-05-25T06:54:10;96538.22;;;17.88;100.00
29379;BME280;16362;47.202;15.258;2023-05-25T06:56:39;96535.69;;;18.07;100.00
29379;BME280;16362;47.202;15.258;2023-05-25T06:59:06;96528.19;;;18.09;100.00
29379;BME280;16362;47.202;15.258;2023-05-25T07:01:33;96528.38;;;18.14;100.00
29379;BME280;16362;47.202;15.258;2023-05-25T07:03:59;96522.63;;;18.35;100.00
29379;BME280;16362;47.202;15.258;2023-05-25T07:06:26;96531.44;;;18.24;100.00
29379;BME280;16362;47.202;15.258;2023-05-25T07:08:53;96528.81;;;18.43;100.00
29379;BME280;16362;47.202;15.258;2023-05-25T07:11:21;96539.16;;;18.52;100.00
29379;BME280;16362;47.202;15.258;2023-05-25T07:13:48;96530.19;;;18.27;100.00
29379;BME280;16362;47.202;15.258;2023-05-25T07:16:15;96529.22;;;18.46;100.00
29379;BME280;16362;47.202;15.258;2023-05-25T07:18:42;96527.84;;;18.62;100.00
29379;BME280;16362;47.202;15.258;2023-05-25T07:21:09;96524.53;;;18.92;100.00
29379;BME280;16362;47.202;15.258;2023-05-25T07:23:37;96525.81;;;19.33;100.00
29379;BME280;16362;47.202;15.258;2023-05-25T07:26:06;96520.72;;;19.62;100.00
29379;BME280;16362;47.202;15.258;2023-05-25T07:28:33;96529.59;;;19.69;100.00
29379;BME280;16362;47.202;15.258;2023-05-25T07:31:00;96530.78;;;19.55;100.00
29379;BME280;16362;47.202;15.258;2023-05-25T07:33:27;96522.88;;;19.53;100.00
29379;BME280;16362;47.202;15.258;2023-05-25T07:35:54;96534.06;;;19.20;100.00
29379;BME280;16362;47.202;15.258;2023-05-25T07:38:20;96524.09;;;19.58;100.00
29379;BME280;16362;47.202;15.258;2023-05-25T07:40:47;96522.38;;;19.63;98.83
29379;BME280;16362;47.202;15.258;2023-05-25T07:43:15;96521.31;;;19.46;98.66
29379;BME280;16362;47.202;15.258;2023-05-25T07:45:42;96528.25;;;19.42;100.00
29379;BME280;16362;47.202;15.258;2023-05-25T07:48:09;96529.56;;;19.32;95.38
29379;BME280;16362;47.202;15.258;2023-05-25T07:50:36;96530.78;;;19.37;100.00
29379;BME280;16362;47.202;15.258;2023-05-25T07:53:03;96534.84;;;19.46;95.56
29379;BME280;16362;47.202;15.258;2023-05-25T07:55:30;96537.94;;;19.31;97.98
29379;BME280;16362;47.202;15.258;2023-05-25T07:57:57;96533.63;;;19.23;97.35
29379;BME280;16362;47.202;15.258;2023-05-25T08:00:23;96530.78;;;19.37;100.00
29379;BME280;16362;47.202;15.258;2023-05-25T08:02:50;96532.16;;;19.46;100.00
29379;BME280;16362;47.202;15.258;2023-05-25T08:05:17;96530.56;;;19.57;97.57
29379;BME280;16362;47.202;15.258;2023-05-25T08:07:44;96531.75;;;19.79;96.80
29379;BME280;16362;47.202;15.258;2023-05-25T08:10:12;96530.97;;;19.97;97.62
29379;BME280;16362;47.202;15.258;2023-05-25T08:12:39;96534.47;;;20.16;96.24
29379;BME280;16362;47.202;15.258;2023-05-25T08:15:15;96529.72;;;20.12;97.61
29379;BME280;16362;47.202;15.258;2023-05-25T08:17:42;96538.13;;;20.22;94.23
29379;BME280;16362;47.202;15.258;2023-05-25T08:20:10;96537.22;;;20.28;94.20
29379;BME280;16362;47.202;15.258;2023-05-25T08:22:37;96542.56;;;20.35;95.95
29379;BME280;16362;47.202;15.258;2023-05-25T08:25:04;96536.91;;;20.48;91.39
29379;BME280;16362;47.202;15.258;2023-05-25T08:27:32;96536.19;;;20.41;92.58
29379;BME280;16362;47.202;15.258;2023-05-25T08:30:02;96533.28;;;20.55;93.33
29379;BME280;16362;47.202;15.258;2023-05-25T08:32:31;96537.81;;;20.61;93.08
29379;BME280;16362;47.202;15.258;2023-05-25T08:34:58;96531.28;;;20.50;95.01
29379;BME280;16362;47.202;15.258;2023-05-25T08:37:25;96529.13;;;20.71;92.55
29379;BME280;16362;47.202;15.258;2023-05-25T08:39:51;96522.56;;;20.78;92.24
29379;BME280;16362;47.202;15.258;2023-05-25T08:42:18;96518.19;;;20.77;92.65
29379;BME280;16362;47.202;15.258;2023-05-25T08:44:45;96527.63;;;20.86;91.75
29379;BME280;16362;47.202;15.258;2023-05-25T08:47:13;96535.38;;;20.71;90.94
29379;BME280;16362;47.202;15.258;2023-05-25T08:49:43;96532.94;;;20.81;90.75
29379;BME280;16362;47.202;15.258;2023-05-25T08:52:13;96542.00;;;20.87;92.68
29379;BME280;16362;47.202;15.258;2023-05-25T08:54:43;96541.31;;;20.80;89.09
29379;BME280;16362;47.202;15.258;2023-05-25T09:00:16;96547.31;;;20.51;91.14
29379;BME280;16362;47.202;15.258;2023-05-25T09:02:58;96541.81;;;20.58;91.75
29379;BME280;16362;47.202;15.258;2023-05-25T09:05:26;96544.50;;;20.58;88.92
29379;BME280;16362;47.202;15.258;2023-05-25T09:07:54;96545.47;;;20.64;89.64
29379;BME280;16362;47.202;15.258;2023-05-25T09:10:22;96546.25;;;20.83;92.94
29379;BME280;16362;47.202;15.258;2023-05-25T09:12:50;96548.47;;;20.44;93.03
29379;BME280;16362;47.202;15.258;2023-05-25T09:15:18;96543.94;;;20.26;94.42
29379;BME280;16362;47.202;15.258;2023-05-25T09:17:44;96550.19;;;20.08;95.09
29379;BME280;16362;47.202;15.258;2023-05-25T09:20:11;96545.63;;;19.90;96.93
29379;BME280;16362;47.202;15.258;2023-05-25T09:22:40;96553.53;;;19.91;96.89
29379;BME280;16362;47.202;15.258;2023-05-25T09:25:09;96545.78;;;20.25;94.11
29379;BME280;16362;47.202;15.258;2023-05-25T09:27:36;96545.44;;;20.22;95.76
29379;BME280;16362;47.202;15.258;2023-05-25T09:30:04;96541.13;;;20.32;92.90
29379;BME280;16362;47.202;15.258;2023-05-25T09:32:31;96549.06;;;20.46;98.05
29379;BME280;16362;47.202;15.258;2023-05-25T09:35:16;96551.41;;;20.42;94.12
29379;BME280;16362;47.202;15.258;2023-05-25T09:37:43;96550.41;;;20.25;95.08
29379;BME280;16362;47.202;15.258;2023-05-25T09:40:10;96547.47;;;20.26;92.79
29379;BME280;16362;47.202;15.258;2023-05-25T09:42:39;96547.38;;;20.33;96.95
29379;BME280;16362;47.202;15.258;2023-05-25T09:45:06;96551.19;;;20.44;93.34
29379;BME280;16362;47.202;15.258;2023-05-25T09:47:35;96554.03;;;20.49;94.43
29379;BME280;16362;47.202;15.258;2023-05-25T09:50:02;96554.41;;;20.64;91.78
29379;BME280;16362;47.202;15.258;2023-05-25T09:52:30;96548.41;;;21.05;94.32
29379;BME280;16362;47.202;15.258;2023-05-25T09:54:56;96556.56;;;21.16;91.61
29379;BME280;16362;47.202;15.258;2023-05-25T09:57:25;96550.28;;;20.92;89.11
29379;BME280;16362;47.202;15.258;2023-05-25T09:59:52;96557.97;;;21.07;88.93
29379;BME280;16362;47.202;15.258;2023-05-25T10:02:19;96561.63;;;21.25;89.44
29379;BME280;16362;47.202;15.258;2023-05-25T10:04:46;96563.16;;;21.32;88.40
29379;BME280;16362;47.202;15.258;2023-05-25T10:07:14;96568.00;;;21.54;90.46
29379;BME280;16362;47.202;15.258;2023-05-25T10:09:44;96567.91;;;21.49;87.78
29379;BME280;16362;47.202;15.258;2023-05-25T10:12:13;96566.25;;;21.60;88.82
29379;BME280;16362;47.202;15.258;2023-05-25T10:14:45;96562.94;;;21.58;86.46
29379;BME280;16362;47.202;15.258;2023-05-25T10:17:13;96561.88;;;21.70;86.82
29379;BME280;16362;47.202;15.258;2023-05-25T10:19:54;96560.00;;;21.59;83.48
29379;BME280;16362;47.202;15.258;2023-05-25T10:22:31;96553.16;;;21.57;88.15
29379;BME280;16362;47.202;15.258;2023-05-25T10:25:09;96548.41;;;21.76;84.05
29379;BME280;16362;47.202;15.258;2023-05-25T10:27:56;96552.78;;;21.77;84.55
29379;BME280;16362;47.202;15.258;2023-05-25T10:30:25;96550.06;;;21.77;86.68
29379;BME280;16362;47.202;15.258;2023-05-25T10:32:55;96554.81;;;21.58;86.81
29379;BME280;16362;47.202;15.258;2023-05-25T10:35:23;96551.03;;;21.59;85.07
29379;BME280;16362;47.202;15.258;2023-05-25T10:37:51;96558.56;;;21.45;85.31
29379;BME280;16362;47.202;15.258;2023-05-25T10:40:20;96546.50;;;21.52;85.02
29379;BME280;16362;47.202;15.258;2023-05-25T10:42:49;96546.41;;;21.59;84.91
29379;BME280;16362;47.202;15.258;2023-05-25T10:45:17;96546.41;;;21.59;84.62
29379;BME280;16362;47.202;15.258;2023-05-25T10:47:44;96544.50;;;21.72;84.27
29379;BME280;16362;47.202;15.258;2023-05-25T10:50:21;96549.00;;;21.66;90.01
29379;BME280;16362;47.202;15.258;2023-05-25T10:53:11;96544.50;;;21.36;85.84
29379;BME280;16362;47.202;15.258;2023-05-25T10:56:00;96536.13;;;21.37;86.76
29379;BME280;16362;47.202;15.258;2023-05-25T10:58:28;96534.50;;;21.60;85.84
29379;BME280;16362;47.202;15.258;2023-05-25T11:01:16;96536.72;;;21.75;86.26
29379;BME280;16362;47.202;15.258;2023-05-25T11:06:14;96521.31;;;21.93;83.48
29379;BME280;16362;47.202;15.258;2023-05-25T11:08:49;96528.06;;;21.78;84.13
29379;BME280;16362;47.202;15.258;2023-05-25T11:11:16;96542.00;;;21.82;80.78
29379;BME280;16362;47.202;15.258;2023-05-25T11:13:44;96535.50;;;21.95;79.95
29379;BME280;16362;47.202;15.258;2023-05-25T11:18:57;96533.91;;;22.11;82.92
29379;BME280;16362;47.202;15.258;2023-05-25T11:26:26;96532.34;;;22.73;78.62
29379;BME280;16362;47.202;15.258;2023-05-25T11:28:54;96534.53;;;22.42;79.24
29379;BME280;16362;47.202;15.258;2023-05-25T11:31:29;96519.97;;;22.48;78.36
29379;BME280;16362;47.202;15.258;2023-05-25T11:34:04;96521.63;;;22.49;77.03
29379;BME280;16362;47.202;15.258;2023-05-25T11:36:34;96530.78;;;22.19;77.82
29379;BME280;16362;47.202;15.258;2023-05-25T11:39:04;96531.13;;;21.94;79.56
29379;BME280;16362;47.202;15.258;2023-05-25T11:41:47;96530.47;;;21.75;82.76
29379;BME280;16362;47.202;15.258;2023-05-25T11:44:27;96515.59;;;21.42;81.22
29379;BME280;16362;47.202;15.258;2023-05-25T11:46:55;96525.78;;;21.58;82.47
29379;BME280;16362;47.202;15.258;2023-05-25T11:49:23;96515.59;;;21.77;81.58
29379;BME280;16362;47.202;15.258;2023-05-25T11:51:55;96510.09;;;21.89;83.16
29379;BME280;16362;47.202;15.258;2023-05-25T11:54:22;96505.00;;;22.04;81.94
29379;BME280;16362;47.202;15.258;2023-05-25T11:56:50;96495.84;;;22.11;81.73
29379;BME280;16362;47.202;15.258;2023-05-25T11:59:17;96490.03;;;22.19;84.85
29379;BME280;16362;47.202;15.258;2023-05-25T12:01:54;96501.91;;;21.72;83.06
29379;BME280;16362;47.202;15.258;2023-05-25T12:04:21;96492.63;;;21.85;80.38
29379;BME280;16362;47.202;15.258;2023-05-25T12:06:49;96494.28;;;21.86;83.85
29379;BME280;16362;47.202;15.258;2023-05-25T12:09:20;96486.97;;;21.86;81.73
29379;BME280;16362;47.202;15.258;2023-05-25T12:11:47;96482.63;;;21.85;83.44
29379;BME280;16362;47.202;15.258;2023-05-25T12:14:14;96475.88;;;21.88;81.97
29379;BME280;16362;47.202;15.258;2023-05-25T12:16:42;96461.06;;;21.96;80.94
29379;BME280;16362;47.202;15.258;2023-05-25T12:19:09;96463.59;;;21.85;83.31
29379;BME280;16362;47.202;15.258;2023-05-25T12:21:39;96467.94;;;21.86;82.71
29379;BME280;16362;47.202;15.258;2023-05-25T12:24:07;96462.56;;;22.03;81.71
29379;BME280;16362;47.202;15.258;2023-05-25T12:26:46;96460.63;;;22.16;82.31
29379;BME280;16362;47.202;15.258;2023-05-25T12:29:12;96461.47;;;22.33;81.08
29379;BME280;16362;47.202;15.258;2023-05-25T12:31:40;96459.59;;;22.34;79.77
29379;BME280;16362;47.202;15.258;2023-05-25T12:34:11;96454.44;;;22.03;79.91
29379;BME280;16362;47.202;15.258;2023-05-25T12:36:53;96458.06;;;21.80;80.90
29379;BME280;16362;47.202;15.258;2023-05-25T12:42:02;96458.41;;;21.84;81.73
29379;BME280;16362;47.202;15.258;2023-05-25T12:44:32;96465.19;;;21.58;83.57
29379;BME280;16362;47.202;15.258;2023-05-25T12:49:44;96464.38;;;21.22;83.91
29379;BME280;16362;47.202;15.258;2023-05-25T12:52:40;96464.66;;;21.08;89.25
29379;BME280;16362;47.202;15.258;2023-05-25T12:57:54;96455.69;;;20.72;90.95
29379;BME280;16362;47.202;15.258;2023-05-25T13:00:22;96444.84;;;20.72;92.40
29379;BME280;16362;47.202;15.258;2023-05-25T13:02:50;96440.69;;;20.69;94.00
29379;BME280;16362;47.202;15.258;2023-05-25T13:05:22;96429.13;;;20.74;93.28
29379;BME280;16362;47.202;15.258;2023-05-25T13:07:50;96434.69;;;20.91;94.16
29379;BME280;16362;47.202;15.258;2023-05-25T13:10:17;96424.19;;;21.07;92.46
29379;BME280;16362;47.202;15.258;2023-05-25T13:12:45;96428.31;;;21.21;90.67
29379;BME280;16362;47.202;15.258;2023-05-25T13:15:14;96427.09;;;21.41;90.48
29379;BME280;16362;47.202;15.258;2023-05-25T13:17:43;96419.88;;;21.46;88.77